Tjuhtet, Russia
Current Conditions -  °F | °C
As of 4:00 PM on Wednesday 28 Jan 2015 (Local Time) from UNKL Reporting Station
Clear Clear  
Wind Chill: -2°   Ceiling: Unl
Heat Index:   Visibility: 6mi
Dew Point: -6°   Wind: 7mph
Humidity: 52%   Direction: 240°WSW
Pressure: 30.39"   Gusts: NA
Location:  56.53°N, 89.31°E
Report Text: UNKL 280900Z 24003MPS CAVOK M13/M21 Q1029 NOSIG RMK QFE74529////55
Loading
Personal Weather Stations






























Interactive Weather Map New forecast layout! Learn more

10-Day Weather Forecast

Advertisements
Track Severe Weather on mobile